createdAt,value
2023-05-14T00:04:07.297Z,6.97
2023-05-14T00:09:08.784Z,6.93
2023-05-14T00:14:10.270Z,7.13
2023-05-14T00:19:11.792Z,7.72
2023-05-14T00:24:13.311Z,9.18
2023-05-14T00:29:14.778Z,8.10
2023-05-14T00:34:16.159Z,8.15
2023-05-14T00:39:17.580Z,8.90
2023-05-14T00:44:19.054Z,9.65
2023-05-14T00:49:21.132Z,9.30
2023-05-14T00:54:22.833Z,10.32
2023-05-14T00:59:24.256Z,10.38
2023-05-14T01:04:25.851Z,10.00
2023-05-14T01:09:42.846Z,9.90
2023-05-14T01:15:09.270Z,9.07
2023-05-14T01:20:11.560Z,10.10
2023-05-14T01:25:13.042Z,9.98
2023-05-14T01:30:22.999Z,9.38
2023-05-14T01:35:27.507Z,10.95
2023-05-14T01:40:31.213Z,9.90
2023-05-14T01:45:35.692Z,10.02
2023-05-14T01:50:37.162Z,12.02
2023-05-14T01:55:38.696Z,9.55
2023-05-14T02:00:40.097Z,10.00
2023-05-14T02:05:41.518Z,10.25
2023-05-14T02:10:42.928Z,11.85
2023-05-14T02:15:44.332Z,10.50
2023-05-14T02:20:46.636Z,11.32
2023-05-14T02:25:48.026Z,10.55
2023-05-14T02:30:49.491Z,12.15
2023-05-14T02:35:50.915Z,11.52
2023-05-14T02:40:52.426Z,11.82
2023-05-14T02:45:53.906Z,11.52
2023-05-14T02:50:55.381Z,11.82
2023-05-14T02:55:56.800Z,11.60
2023-05-14T03:00:58.787Z,11.00
2023-05-14T03:06:00.599Z,11.52
2023-05-14T03:11:02.607Z,12.13
2023-05-14T03:16:04.168Z,11.82
2023-05-14T03:21:05.702Z,11.20
2023-05-14T03:26:07.192Z,12.65
2023-05-14T03:31:08.674Z,12.63
2023-05-14T03:36:10.189Z,12.70
2023-05-14T03:41:11.780Z,13.82
2023-05-14T03:46:13.299Z,13.63
2023-05-14T03:51:14.730Z,13.35
2023-05-14T03:56:16.173Z,14.38
2023-05-14T04:01:17.574Z,12.32
2023-05-14T04:06:19.391Z,14.85
2023-05-14T04:11:21.600Z,14.15
2023-05-14T04:16:23.295Z,12.98
2023-05-14T04:21:24.866Z,12.48
2023-05-14T04:26:26.562Z,14.07
2023-05-14T04:31:28.164Z,13.80
2023-05-14T04:36:29.603Z,13.82
2023-05-14T04:41:31.005Z,16.25
2023-05-14T04:46:32.508Z,15.13
2023-05-14T04:51:34.006Z,15.93
2023-05-14T04:56:35.574Z,16.00
2023-05-14T05:01:37.114Z,14.85
2023-05-14T05:06:38.707Z,15.52
2023-05-14T05:11:40.095Z,14.48
2023-05-14T05:16:41.553Z,15.30
2023-05-14T05:21:43.025Z,16.20
2023-05-14T05:26:44.434Z,15.05
2023-05-14T05:31:46.212Z,14.88
2023-05-14T05:36:47.700Z,15.35
2023-05-14T05:41:49.274Z,15.82
2023-05-14T05:46:51.121Z,14.57
2023-05-14T05:51:52.666Z,15.32
2023-05-14T05:56:54.109Z,17.23
2023-05-14T06:01:55.657Z,15.52
2023-05-14T06:06:57.620Z,15.50
2023-05-14T06:11:59.043Z,15.57
2023-05-14T06:17:00.889Z,13.55
2023-05-14T06:22:02.852Z,13.20
2023-05-14T06:27:04.365Z,15.73
2023-05-14T06:32:06.412Z,14.20
2023-05-14T06:37:09.447Z,13.77
2023-05-14T06:42:10.916Z,11.80
2023-05-14T06:47:12.386Z,12.35
2023-05-14T06:52:13.775Z,13.00
2023-05-14T06:57:15.270Z,12.68
2023-05-14T07:02:16.728Z,10.60
2023-05-14T07:07:20.736Z,11.23
2023-05-14T07:12:22.258Z,9.13
2023-05-14T07:17:24.262Z,9.82
2023-05-14T07:22:25.836Z,10.10
2023-05-14T07:27:27.215Z,9.50
2023-05-14T07:32:28.623Z,10.30
2023-05-14T07:37:30.171Z,10.55
2023-05-14T07:42:36.396Z,9.10
2023-05-14T07:47:39.272Z,9.40
2023-05-14T07:52:40.820Z,8.55
2023-05-14T07:57:42.290Z,8.32
2023-05-14T08:02:44.739Z,8.10
2023-05-14T08:07:46.453Z,7.32
2023-05-14T08:12:47.953Z,7.65
2023-05-14T08:17:49.460Z,6.88
2023-05-14T08:22:50.870Z,7.20
2023-05-14T08:27:54.094Z,5.65
2023-05-14T08:32:55.569Z,5.75
2023-05-14T08:37:57.153Z,5.55
2023-05-14T08:42:58.946Z,4.93
2023-05-14T08:48:02.092Z,5.10
2023-05-14T08:53:03.712Z,5.10
2023-05-14T08:58:05.129Z,5.07
2023-05-14T09:03:07.122Z,5.95
2023-05-14T09:08:08.570Z,6.43
2023-05-14T09:13:10.253Z,6.10
2023-05-14T09:18:11.856Z,7.70
2023-05-14T09:23:13.586Z,6.93
2023-05-14T09:28:17.263Z,5.82
2023-05-14T09:33:31.764Z,6.60
2023-05-14T09:38:33.794Z,5.22
2023-05-14T09:43:36.424Z,6.07
2023-05-14T09:48:38.078Z,5.80
2023-05-14T09:53:41.238Z,5.97
2023-05-14T09:58:42.717Z,5.70
2023-05-14T10:03:44.466Z,5.15
2023-05-14T10:08:48.582Z,4.13
2023-05-14T10:14:07.664Z,5.10
2023-05-14T10:19:11.071Z,4.93
2023-05-14T10:24:13.027Z,4.40
2023-05-14T10:29:14.733Z,5.07
2023-05-14T10:34:38.264Z,4.05
2023-05-14T10:40:06.501Z,4.23
2023-05-14T10:45:10.807Z,4.53
2023-05-14T10:50:16.331Z,4.80
2023-05-14T10:55:17.855Z,3.72
2023-05-14T11:00:19.644Z,3.92
2023-05-14T11:05:21.203Z,4.22
2023-05-14T11:10:23.989Z,4.00
2023-05-14T11:15:26.815Z,3.03
2023-05-14T11:20:28.888Z,4.72
2023-05-14T11:25:30.708Z,3.58
2023-05-14T11:30:32.243Z,3.10
2023-05-14T11:35:33.676Z,3.00
2023-05-14T11:40:36.225Z,2.92
2023-05-14T11:45:37.842Z,3.60
2023-05-14T11:50:40.688Z,3.45
2023-05-14T11:55:42.294Z,2.70
2023-05-14T12:00:45.596Z,2.97
2023-05-14T12:06:01.148Z,4.07
2023-05-14T12:11:02.664Z,3.85
2023-05-14T12:16:05.402Z,3.20
2023-05-14T12:21:09.849Z,3.42
2023-05-14T12:31:16.593Z,4.13
2023-05-14T12:36:21.652Z,3.33
2023-05-14T12:41:23.764Z,3.00
2023-05-14T12:46:27.065Z,3.70
2023-05-14T12:51:28.737Z,3.70
2023-05-14T12:56:31.676Z,3.20
2023-05-14T13:01:33.336Z,3.33
2023-05-14T13:06:35.125Z,3.05
2023-05-14T13:11:36.955Z,3.28
2023-05-14T13:16:38.713Z,3.03
2023-05-14T13:21:40.331Z,3.33
2023-05-14T13:26:41.753Z,3.47
2023-05-14T13:31:43.221Z,4.22
2023-05-14T13:36:44.779Z,4.20
2023-05-14T13:41:46.389Z,3.10
2023-05-14T13:46:48.135Z,4.50
2023-05-14T13:51:49.793Z,4.38
2023-05-14T13:56:51.990Z,4.50
2023-05-14T14:01:53.512Z,3.88
2023-05-14T14:06:55.462Z,3.83
2023-05-14T14:11:56.937Z,4.15
2023-05-14T14:16:58.394Z,4.03
2023-05-14T14:21:59.862Z,3.38
2023-05-14T14:27:02.409Z,4.00
2023-05-14T14:32:04.382Z,4.80
2023-05-14T14:37:06.287Z,3.42
2023-05-14T14:42:07.796Z,3.78
2023-05-14T14:47:09.240Z,3.70
2023-05-14T14:52:10.696Z,3.08
2023-05-14T14:57:12.146Z,4.47
2023-05-14T15:02:13.925Z,3.50
2023-05-14T15:07:17.330Z,3.00
2023-05-14T15:12:19.137Z,3.63
2023-05-14T15:17:20.864Z,3.38
2023-05-14T15:22:22.453Z,3.83
2023-05-14T15:27:23.844Z,3.13
2023-05-14T15:32:27.050Z,3.25
2023-05-14T15:37:35.663Z,3.72
2023-05-14T15:42:38.741Z,4.07
2023-05-14T15:47:41.797Z,3.40
2023-05-14T15:52:43.287Z,3.88
2023-05-14T15:57:44.751Z,3.80
2023-05-14T16:02:46.296Z,3.92
2023-05-14T16:07:47.761Z,5.25
2023-05-14T16:12:49.199Z,2.85
2023-05-14T16:17:50.737Z,2.75
2023-05-14T16:22:52.462Z,2.53
2023-05-14T16:27:54.359Z,3.15
2023-05-14T16:32:55.766Z,3.08
2023-05-14T16:37:57.261Z,4.25
2023-05-14T16:42:58.703Z,2.42
2023-05-14T16:48:01.284Z,3.00
2023-05-14T16:53:02.942Z,2.33
2023-05-14T16:58:04.591Z,2.92
2023-05-14T17:03:07.102Z,2.92
2023-05-14T17:08:08.600Z,2.58
2023-05-14T17:13:10.051Z,3.20
2023-05-14T17:18:12.091Z,4.40
2023-05-14T17:23:13.748Z,4.00
2023-05-14T17:28:15.276Z,4.82
2023-05-14T17:33:17.118Z,6.10
2023-05-14T17:38:18.557Z,6.18
2023-05-14T17:43:19.974Z,5.88
2023-05-14T17:48:22.702Z,6.35
2023-05-14T17:53:24.178Z,6.30
2023-05-14T17:58:25.819Z,6.18
2023-05-14T18:03:27.538Z,5.32
2023-05-14T18:08:29.118Z,5.72
2023-05-14T18:13:30.613Z,6.00
2023-05-14T18:18:32.154Z,9.15
2023-05-14T18:23:33.689Z,7.32
2023-05-14T18:28:36.248Z,6.30
2023-05-14T18:33:37.726Z,7.70
2023-05-14T18:38:40.725Z,7.55
2023-05-14T18:43:42.208Z,7.22
2023-05-14T18:48:43.824Z,7.30
2023-05-14T18:53:45.356Z,8.18
2023-05-14T18:58:49.505Z,7.35
2023-05-14T19:03:52.929Z,9.38
2023-05-14T19:08:54.584Z,8.00
2023-05-14T19:13:57.120Z,6.78
2023-05-14T19:18:58.752Z,7.03
2023-05-14T19:24:00.640Z,6.75
2023-05-14T19:29:02.305Z,6.95
2023-05-14T19:34:03.992Z,6.30
2023-05-14T19:39:05.970Z,6.05
2023-05-14T19:44:07.785Z,5.20
2023-05-14T19:49:09.323Z,5.68
2023-05-14T19:54:11.109Z,6.63
2023-05-14T19:59:15.724Z,6.50
2023-05-14T20:04:17.915Z,7.20
2023-05-14T20:09:22.202Z,7.63
2023-05-14T20:14:23.872Z,7.18
2023-05-14T20:19:26.735Z,7.53
2023-05-14T20:24:28.670Z,8.60
2023-05-14T20:29:30.319Z,8.02
2023-05-14T20:34:31.916Z,7.30
2023-05-14T20:39:33.562Z,7.95
2023-05-14T20:44:36.415Z,8.52
2023-05-14T20:49:37.936Z,8.90
2023-05-14T20:54:39.392Z,7.75
2023-05-14T20:59:41.120Z,8.95
2023-05-14T21:04:42.932Z,8.52
2023-05-14T21:09:46.493Z,9.85
2023-05-14T21:14:47.991Z,8.77
2023-05-14T21:19:49.610Z,8.50
2023-05-14T21:24:51.396Z,10.02
2023-05-14T21:29:53.158Z,8.88
2023-05-14T21:34:54.710Z,9.25
2023-05-14T21:39:56.438Z,10.98
2023-05-14T21:44:58.052Z,9.57
2023-05-14T21:49:59.706Z,9.68
2023-05-14T21:55:01.445Z,9.82
2023-05-14T22:00:05.384Z,10.65
2023-05-14T22:05:07.081Z,10.07
2023-05-14T22:10:10.138Z,8.93
2023-05-14T22:15:12.385Z,9.07
2023-05-14T22:20:14.305Z,10.07
2023-05-14T22:25:15.866Z,10.10
2023-05-14T22:30:17.360Z,10.02
2023-05-14T22:35:18.962Z,9.23
2023-05-14T22:40:20.563Z,8.82
2023-05-14T22:45:22.249Z,10.02
2023-05-14T22:50:24.297Z,10.65
2023-05-14T22:55:26.076Z,10.25
2023-05-14T23:00:28.032Z,10.00
2023-05-14T23:05:29.514Z,10.93
2023-05-14T23:10:31.231Z,10.77
2023-05-14T23:15:32.990Z,11.48
2023-05-14T23:20:34.396Z,10.20
2023-05-14T23:25:35.940Z,12.07
2023-05-14T23:30:37.375Z,10.65
2023-05-14T23:35:39.296Z,11.85
2023-05-14T23:40:40.764Z,11.90
2023-05-14T23:45:42.309Z,10.00
2023-05-14T23:50:44.039Z,9.27
2023-05-14T23:55:45.508Z,9.55
